sensor_id;sensor_type;location;lat;lon;timestamp;P1;durP1;ratioP1;P2;durP2;ratioP2
34643;SDS011;26931;43.498;-1.506;2023-05-21T00:01:00;23.63;;;8.65;;
34643;SDS011;26931;43.498;-1.506;2023-05-21T00:03:27;27.10;;;8.73;;
34643;SDS011;26931;43.498;-1.506;2023-05-21T00:05:54;20.60;;;8.57;;
34643;SDS011;26931;43.498;-1.506;2023-05-21T00:08:20;20.10;;;7.38;;
34643;SDS011;26931;43.498;-1.506;2023-05-21T00:10:47;18.92;;;8.02;;
34643;SDS011;26931;43.498;-1.506;2023-05-21T00:13:12;23.92;;;9.32;;
34643;SDS011;26931;43.498;-1.506;2023-05-21T00:15:38;22.60;;;8.88;;
34643;SDS011;26931;43.498;-1.506;2023-05-21T00:18:04;20.70;;;8.35;;
34643;SDS011;26931;43.498;-1.506;2023-05-21T00:20:30;24.05;;;9.45;;
34643;SDS011;26931;43.498;-1.506;2023-05-21T00:22:59;21.85;;;8.68;;
34643;SDS011;26931;43.498;-1.506;2023-05-21T00:25:28;24.20;;;8.60;;
34643;SDS011;26931;43.498;-1.506;2023-05-21T00:27:54;27.30;;;9.10;;
34643;SDS011;26931;43.498;-1.506;2023-05-21T00:30:20;20.55;;;8.77;;
34643;SDS011;26931;43.498;-1.506;2023-05-21T00:32:46;25.67;;;8.80;;
34643;SDS011;26931;43.498;-1.506;2023-05-21T00:35:12;24.75;;;9.77;;
34643;SDS011;26931;43.498;-1.506;2023-05-21T00:37:38;25.50;;;9.55;;
34643;SDS011;26931;43.498;-1.506;2023-05-21T00:40:05;16.20;;;8.00;;
34643;SDS011;26931;43.498;-1.506;2023-05-21T00:42:32;18.42;;;8.60;;
34643;SDS011;26931;43.498;-1.506;2023-05-21T00:45:03;23.05;;;8.68;;
34643;SDS011;26931;43.498;-1.506;2023-05-21T00:47:32;16.13;;;7.68;;
34643;SDS011;26931;43.498;-1.506;2023-05-21T00:50:00;21.35;;;7.85;;
34643;SDS011;26931;43.498;-1.506;2023-05-21T00:52:27;22.73;;;8.68;;
34643;SDS011;26931;43.498;-1.506;2023-05-21T00:54:53;25.38;;;8.20;;
34643;SDS011;26931;43.498;-1.506;2023-05-21T00:57:20;20.10;;;7.45;;
34643;SDS011;26931;43.498;-1.506;2023-05-21T00:59:47;18.52;;;7.05;;
34643;SDS011;26931;43.498;-1.506;2023-05-21T01:02:16;20.25;;;7.28;;
34643;SDS011;26931;43.498;-1.506;2023-05-21T01:04:45;15.98;;;7.15;;
34643;SDS011;26931;43.498;-1.506;2023-05-21T01:07:11;15.10;;;7.15;;
34643;SDS011;26931;43.498;-1.506;2023-05-21T01:09:39;16.85;;;7.55;;
34643;SDS011;26931;43.498;-1.506;2023-05-21T01:12:05;18.75;;;7.75;;
34643;SDS011;26931;43.498;-1.506;2023-05-21T01:14:32;21.38;;;8.05;;
34643;SDS011;26931;43.498;-1.506;2023-05-21T01:17:00;17.92;;;8.10;;
34643;SDS011;26931;43.498;-1.506;2023-05-21T01:19:26;22.80;;;7.78;;
34643;SDS011;26931;43.498;-1.506;2023-05-21T01:21:56;18.85;;;7.88;;
34643;SDS011;26931;43.498;-1.506;2023-05-21T01:24:25;19.95;;;8.40;;
34643;SDS011;26931;43.498;-1.506;2023-05-21T01:26:51;15.30;;;7.80;;
34643;SDS011;26931;43.498;-1.506;2023-05-21T01:29:17;22.83;;;7.45;;
34643;SDS011;26931;43.498;-1.506;2023-05-21T01:37:25;23.67;;;7.63;;
34643;SDS011;26931;43.498;-1.506;2023-05-21T01:39:56;18.27;;;7.75;;
34643;SDS011;26931;43.498;-1.506;2023-05-21T01:42:25;19.23;;;7.68;;
34643;SDS011;26931;43.498;-1.506;2023-05-21T01:44:54;22.17;;;8.40;;
34643;SDS011;26931;43.498;-1.506;2023-05-21T01:47:22;20.10;;;8.05;;
34643;SDS011;26931;43.498;-1.506;2023-05-21T01:49:49;26.90;;;9.27;;
34643;SDS011;26931;43.498;-1.506;2023-05-21T01:52:16;18.40;;;8.77;;
34643;SDS011;26931;43.498;-1.506;2023-05-21T01:54:42;18.95;;;8.18;;
34643;SDS011;26931;43.498;-1.506;2023-05-21T01:57:08;22.13;;;8.75;;
34643;SDS011;26931;43.498;-1.506;2023-05-21T01:59:33;24.83;;;8.80;;
34643;SDS011;26931;43.498;-1.506;2023-05-21T02:02:00;16.00;;;8.00;;
34643;SDS011;26931;43.498;-1.506;2023-05-21T02:04:27;18.33;;;8.35;;
34643;SDS011;26931;43.498;-1.506;2023-05-21T02:06:52;23.75;;;9.63;;
34643;SDS011;26931;43.498;-1.506;2023-05-21T02:09:19;19.90;;;8.90;;
34643;SDS011;26931;43.498;-1.506;2023-05-21T02:11:45;15.75;;;7.82;;
34643;SDS011;26931;43.498;-1.506;2023-05-21T02:14:10;16.17;;;8.05;;
34643;SDS011;26931;43.498;-1.506;2023-05-21T02:16:38;16.90;;;7.88;;
34643;SDS011;26931;43.498;-1.506;2023-05-21T02:19:04;19.75;;;8.05;;
34643;SDS011;26931;43.498;-1.506;2023-05-21T02:21:30;16.65;;;8.15;;
34643;SDS011;26931;43.498;-1.506;2023-05-21T02:23:56;17.23;;;7.60;;
34643;SDS011;26931;43.498;-1.506;2023-05-21T02:26:22;19.80;;;8.85;;
34643;SDS011;26931;43.498;-1.506;2023-05-21T02:28:48;17.70;;;8.65;;
34643;SDS011;26931;43.498;-1.506;2023-05-21T02:31:13;15.65;;;7.43;;
34643;SDS011;26931;43.498;-1.506;2023-05-21T02:33:39;17.05;;;8.48;;
34643;SDS011;26931;43.498;-1.506;2023-05-21T02:36:06;21.17;;;9.13;;
34643;SDS011;26931;43.498;-1.506;2023-05-21T02:38:37;19.70;;;7.95;;
34643;SDS011;26931;43.498;-1.506;2023-05-21T02:41:05;20.58;;;8.23;;
34643;SDS011;26931;43.498;-1.506;2023-05-21T02:43:31;18.80;;;8.60;;
34643;SDS011;26931;43.498;-1.506;2023-05-21T02:45:57;21.63;;;8.23;;
34643;SDS011;26931;43.498;-1.506;2023-05-21T02:48:22;18.92;;;8.20;;
34643;SDS011;26931;43.498;-1.506;2023-05-21T02:50:48;18.23;;;8.38;;
34643;SDS011;26931;43.498;-1.506;2023-05-21T02:53:14;17.58;;;8.32;;
34643;SDS011;26931;43.498;-1.506;2023-05-21T02:55:40;19.42;;;8.00;;
34643;SDS011;26931;43.498;-1.506;2023-05-21T02:58:06;16.70;;;8.07;;
34643;SDS011;26931;43.498;-1.506;2023-05-21T03:00:31;22.15;;;8.80;;
34643;SDS011;26931;43.498;-1.506;2023-05-21T03:02:57;18.65;;;8.73;;
34643;SDS011;26931;43.498;-1.506;2023-05-21T03:05:23;18.65;;;9.20;;
34643;SDS011;26931;43.498;-1.506;2023-05-21T03:07:49;14.88;;;7.95;;
34643;SDS011;26931;43.498;-1.506;2023-05-21T03:10:15;17.65;;;8.40;;
34643;SDS011;26931;43.498;-1.506;2023-05-21T03:12:40;21.20;;;9.15;;
34643;SDS011;26931;43.498;-1.506;2023-05-21T03:15:06;19.08;;;8.80;;
34643;SDS011;26931;43.498;-1.506;2023-05-21T03:17:32;20.88;;;9.07;;
34643;SDS011;26931;43.498;-1.506;2023-05-21T03:19:58;20.40;;;8.27;;
34643;SDS011;26931;43.498;-1.506;2023-05-21T03:22:24;20.70;;;9.18;;
34643;SDS011;26931;43.498;-1.506;2023-05-21T03:24:49;19.33;;;9.65;;
34643;SDS011;26931;43.498;-1.506;2023-05-21T03:27:15;18.60;;;9.32;;
34643;SDS011;26931;43.498;-1.506;2023-05-21T03:29:41;21.52;;;9.20;;
34643;SDS011;26931;43.498;-1.506;2023-05-21T03:32:07;22.83;;;9.73;;
34643;SDS011;26931;43.498;-1.506;2023-05-21T03:34:33;20.08;;;9.68;;
34643;SDS011;26931;43.498;-1.506;2023-05-21T03:36:58;23.88;;;9.93;;
34643;SDS011;26931;43.498;-1.506;2023-05-21T03:39:24;23.95;;;10.15;;
34643;SDS011;26931;43.498;-1.506;2023-05-21T03:41:50;24.58;;;9.73;;
34643;SDS011;26931;43.498;-1.506;2023-05-21T03:44:16;23.63;;;10.32;;
34643;SDS011;26931;43.498;-1.506;2023-05-21T03:46:41;21.42;;;10.10;;
34643;SDS011;26931;43.498;-1.506;2023-05-21T03:49:09;22.17;;;10.10;;
34643;SDS011;26931;43.498;-1.506;2023-05-21T03:51:35;24.10;;;10.43;;
34643;SDS011;26931;43.498;-1.506;2023-05-21T03:54:02;27.60;;;10.65;;
34643;SDS011;26931;43.498;-1.506;2023-05-21T03:56:28;18.77;;;9.52;;
34643;SDS011;26931;43.498;-1.506;2023-05-21T03:58:53;17.85;;;9.20;;
34643;SDS011;26931;43.498;-1.506;2023-05-21T04:01:19;21.92;;;9.90;;
34643;SDS011;26931;43.498;-1.506;2023-05-21T04:03:45;20.65;;;9.73;;
34643;SDS011;26931;43.498;-1.506;2023-05-21T04:06:11;19.45;;;9.50;;
34643;SDS011;26931;43.498;-1.506;2023-05-21T04:08:36;20.77;;;9.45;;
34643;SDS011;26931;43.498;-1.506;2023-05-21T04:11:02;18.90;;;9.30;;
34643;SDS011;26931;43.498;-1.506;2023-05-21T04:13:28;16.30;;;8.90;;
34643;SDS011;26931;43.498;-1.506;2023-05-21T04:15:54;18.73;;;9.55;;
34643;SDS011;26931;43.498;-1.506;2023-05-21T04:18:20;21.02;;;9.50;;
34643;SDS011;26931;43.498;-1.506;2023-05-21T04:20:48;20.58;;;9.35;;
34643;SDS011;26931;43.498;-1.506;2023-05-21T04:23:14;22.52;;;10.43;;
34643;SDS011;26931;43.498;-1.506;2023-05-21T04:25:40;18.80;;;9.60;;
34643;SDS011;26931;43.498;-1.506;2023-05-21T04:28:06;24.35;;;9.57;;
34643;SDS011;26931;43.498;-1.506;2023-05-21T04:30:32;18.27;;;9.57;;
34643;SDS011;26931;43.498;-1.506;2023-05-21T04:33:00;20.60;;;10.65;;
34643;SDS011;26931;43.498;-1.506;2023-05-21T04:35:27;16.27;;;8.35;;
34643;SDS011;26931;43.498;-1.506;2023-05-21T04:37:53;22.13;;;10.15;;
34643;SDS011;26931;43.498;-1.506;2023-05-21T04:40:19;21.95;;;9.48;;
34643;SDS011;26931;43.498;-1.506;2023-05-21T04:42:48;22.98;;;10.05;;
34643;SDS011;26931;43.498;-1.506;2023-05-21T04:45:15;19.83;;;10.90;;
34643;SDS011;26931;43.498;-1.506;2023-05-21T04:47:44;18.27;;;9.60;;
34643;SDS011;26931;43.498;-1.506;2023-05-21T04:50:10;19.00;;;10.23;;
34643;SDS011;26931;43.498;-1.506;2023-05-21T04:52:36;17.50;;;9.80;;
34643;SDS011;26931;43.498;-1.506;2023-05-21T04:55:04;22.15;;;11.02;;
34643;SDS011;26931;43.498;-1.506;2023-05-21T04:57:31;22.35;;;10.20;;
34643;SDS011;26931;43.498;-1.506;2023-05-21T04:59:56;23.58;;;9.85;;
34643;SDS011;26931;43.498;-1.506;2023-05-21T05:02:22;22.55;;;10.70;;
34643;SDS011;26931;43.498;-1.506;2023-05-21T05:04:48;21.85;;;11.05;;
34643;SDS011;26931;43.498;-1.506;2023-05-21T05:07:14;21.58;;;9.63;;
34643;SDS011;26931;43.498;-1.506;2023-05-21T05:09:42;25.67;;;10.55;;
34643;SDS011;26931;43.498;-1.506;2023-05-21T05:12:08;21.20;;;9.63;;
34643;SDS011;26931;43.498;-1.506;2023-05-21T05:14:34;21.40;;;10.05;;
34643;SDS011;26931;43.498;-1.506;2023-05-21T05:17:00;19.00;;;9.82;;
34643;SDS011;26931;43.498;-1.506;2023-05-21T05:19:25;18.77;;;9.23;;
34643;SDS011;26931;43.498;-1.506;2023-05-21T05:21:51;22.77;;;10.35;;
34643;SDS011;26931;43.498;-1.506;2023-05-21T05:24:17;17.80;;;9.63;;
34643;SDS011;26931;43.498;-1.506;2023-05-21T05:26:43;25.15;;;11.57;;
34643;SDS011;26931;43.498;-1.506;2023-05-21T05:29:09;20.67;;;10.75;;
34643;SDS011;26931;43.498;-1.506;2023-05-21T05:31:35;18.88;;;10.48;;
34643;SDS011;26931;43.498;-1.506;2023-05-21T05:34:01;18.23;;;10.80;;
34643;SDS011;26931;43.498;-1.506;2023-05-21T05:36:27;22.23;;;11.32;;
34643;SDS011;26931;43.498;-1.506;2023-05-21T05:38:53;18.48;;;11.05;;
34643;SDS011;26931;43.498;-1.506;2023-05-21T05:41:19;19.70;;;10.20;;
34643;SDS011;26931;43.498;-1.506;2023-05-21T05:43:45;21.73;;;10.35;;
34643;SDS011;26931;43.498;-1.506;2023-05-21T05:46:11;23.33;;;11.45;;
34643;SDS011;26931;43.498;-1.506;2023-05-21T05:48:37;17.98;;;10.30;;
34643;SDS011;26931;43.498;-1.506;2023-05-21T05:51:03;15.45;;;9.88;;
34643;SDS011;26931;43.498;-1.506;2023-05-21T05:53:30;23.98;;;10.57;;
34643;SDS011;26931;43.498;-1.506;2023-05-21T05:55:57;25.85;;;10.63;;
34643;SDS011;26931;43.498;-1.506;2023-05-21T05:58:23;20.70;;;10.60;;
34643;SDS011;26931;43.498;-1.506;2023-05-21T06:00:49;17.92;;;10.07;;
34643;SDS011;26931;43.498;-1.506;2023-05-21T06:03:16;15.95;;;9.68;;
34643;SDS011;26931;43.498;-1.506;2023-05-21T06:05:42;23.48;;;10.55;;
34643;SDS011;26931;43.498;-1.506;2023-05-21T06:08:09;22.45;;;10.25;;
34643;SDS011;26931;43.498;-1.506;2023-05-21T06:10:35;27.00;;;11.23;;
34643;SDS011;26931;43.498;-1.506;2023-05-21T06:13:01;18.30;;;10.15;;
34643;SDS011;26931;43.498;-1.506;2023-05-21T06:15:27;20.05;;;10.23;;
34643;SDS011;26931;43.498;-1.506;2023-05-21T06:17:54;19.45;;;10.10;;
34643;SDS011;26931;43.498;-1.506;2023-05-21T06:20:20;20.02;;;9.93;;
34643;SDS011;26931;43.498;-1.506;2023-05-21T06:22:46;15.30;;;9.30;;
34643;SDS011;26931;43.498;-1.506;2023-05-21T06:25:12;20.83;;;11.07;;
34643;SDS011;26931;43.498;-1.506;2023-05-21T06:27:38;17.70;;;9.15;;
34643;SDS011;26931;43.498;-1.506;2023-05-21T06:30:05;19.10;;;9.93;;
34643;SDS011;26931;43.498;-1.506;2023-05-21T06:32:31;13.43;;;9.15;;
34643;SDS011;26931;43.498;-1.506;2023-05-21T06:34:57;19.55;;;9.95;;
34643;SDS011;26931;43.498;-1.506;2023-05-21T06:37:22;18.90;;;9.38;;
34643;SDS011;26931;43.498;-1.506;2023-05-21T06:39:48;16.70;;;8.73;;
34643;SDS011;26931;43.498;-1.506;2023-05-21T06:42:14;22.23;;;10.20;;
34643;SDS011;26931;43.498;-1.506;2023-05-21T06:44:40;21.92;;;9.52;;
34643;SDS011;26931;43.498;-1.506;2023-05-21T06:47:09;20.15;;;10.07;;
34643;SDS011;26931;43.498;-1.506;2023-05-21T06:49:35;45.97;;;11.60;;
34643;SDS011;26931;43.498;-1.506;2023-05-21T06:52:01;18.38;;;10.00;;
34643;SDS011;26931;43.498;-1.506;2023-05-21T06:54:27;20.65;;;9.73;;
34643;SDS011;26931;43.498;-1.506;2023-05-21T06:56:53;14.85;;;9.10;;
34643;SDS011;26931;43.498;-1.506;2023-05-21T06:59:19;21.33;;;9.85;;
34643;SDS011;26931;43.498;-1.506;2023-05-21T07:01:45;19.83;;;10.55;;
34643;SDS011;26931;43.498;-1.506;2023-05-21T07:04:11;21.98;;;9.88;;
34643;SDS011;26931;43.498;-1.506;2023-05-21T07:06:37;17.35;;;9.65;;
34643;SDS011;26931;43.498;-1.506;2023-05-21T07:09:03;18.83;;;10.02;;
34643;SDS011;26931;43.498;-1.506;2023-05-21T07:11:30;18.13;;;9.30;;
34643;SDS011;26931;43.498;-1.506;2023-05-21T07:13:57;18.77;;;9.85;;
34643;SDS011;26931;43.498;-1.506;2023-05-21T07:16:27;18.33;;;9.98;;
34643;SDS011;26931;43.498;-1.506;2023-05-21T07:18:54;16.70;;;8.93;;
34643;SDS011;26931;43.498;-1.506;2023-05-21T07:21:19;17.88;;;10.00;;
34643;SDS011;26931;43.498;-1.506;2023-05-21T07:23:45;19.73;;;10.48;;
34643;SDS011;26931;43.498;-1.506;2023-05-21T07:26:11;29.48;;;14.60;;
34643;SDS011;26931;43.498;-1.506;2023-05-21T07:28:37;29.15;;;13.48;;
34643;SDS011;26931;43.498;-1.506;2023-05-21T07:31:03;25.70;;;13.25;;
34643;SDS011;26931;43.498;-1.506;2023-05-21T07:33:28;21.02;;;10.60;;
34643;SDS011;26931;43.498;-1.506;2023-05-21T07:35:54;24.05;;;10.70;;
34643;SDS011;26931;43.498;-1.506;2023-05-21T07:38:20;19.60;;;9.98;;
34643;SDS011;26931;43.498;-1.506;2023-05-21T07:40:46;15.07;;;9.90;;
34643;SDS011;26931;43.498;-1.506;2023-05-21T07:43:11;17.35;;;9.38;;
34643;SDS011;26931;43.498;-1.506;2023-05-21T07:45:37;17.27;;;8.98;;
34643;SDS011;26931;43.498;-1.506;2023-05-21T07:48:03;16.60;;;8.90;;
34643;SDS011;26931;43.498;-1.506;2023-05-21T07:50:29;13.80;;;8.27;;
34643;SDS011;26931;43.498;-1.506;2023-05-21T07:52:55;16.05;;;8.85;;
34643;SDS011;26931;43.498;-1.506;2023-05-21T07:55:21;17.70;;;8.68;;
34643;SDS011;26931;43.498;-1.506;2023-05-21T07:57:46;17.33;;;8.75;;
34643;SDS011;26931;43.498;-1.506;2023-05-21T08:00:12;14.75;;;8.73;;
34643;SDS011;26931;43.498;-1.506;2023-05-21T08:02:38;10.48;;;8.02;;
34643;SDS011;26931;43.498;-1.506;2023-05-21T08:05:04;14.70;;;8.60;;
34643;SDS011;26931;43.498;-1.506;2023-05-21T08:07:30;13.88;;;7.93;;
34643;SDS011;26931;43.498;-1.506;2023-05-21T08:09:56;12.82;;;7.68;;
34643;SDS011;26931;43.498;-1.506;2023-05-21T08:12:23;13.35;;;8.10;;
34643;SDS011;26931;43.498;-1.506;2023-05-21T08:14:49;17.95;;;8.48;;
34643;SDS011;26931;43.498;-1.506;2023-05-21T08:17:15;10.32;;;7.88;;
34643;SDS011;26931;43.498;-1.506;2023-05-21T08:19:41;19.50;;;8.45;;
34643;SDS011;26931;43.498;-1.506;2023-05-21T08:22:07;18.98;;;8.10;;
34643;SDS011;26931;43.498;-1.506;2023-05-21T08:24:34;15.40;;;8.25;;
34643;SDS011;26931;43.498;-1.506;2023-05-21T08:27:00;14.18;;;8.00;;
34643;SDS011;26931;43.498;-1.506;2023-05-21T08:29:26;14.02;;;8.32;;
34643;SDS011;26931;43.498;-1.506;2023-05-21T08:31:52;13.60;;;7.63;;
34643;SDS011;26931;43.498;-1.506;2023-05-21T08:34:18;11.48;;;7.97;;
34643;SDS011;26931;43.498;-1.506;2023-05-21T08:36:44;11.27;;;7.22;;
34643;SDS011;26931;43.498;-1.506;2023-05-21T08:39:12;13.18;;;6.95;;
34643;SDS011;26931;43.498;-1.506;2023-05-21T08:41:38;16.27;;;7.75;;
34643;SDS011;26931;43.498;-1.506;2023-05-21T08:44:07;17.95;;;7.93;;
34643;SDS011;26931;43.498;-1.506;2023-05-21T08:46:36;17.02;;;8.00;;
34643;SDS011;26931;43.498;-1.506;2023-05-21T08:49:05;13.25;;;6.70;;
34643;SDS011;26931;43.498;-1.506;2023-05-21T08:51:38;13.73;;;7.82;;
34643;SDS011;26931;43.498;-1.506;2023-05-21T08:54:04;15.35;;;7.32;;
34643;SDS011;26931;43.498;-1.506;2023-05-21T08:56:30;9.75;;;7.43;;
34643;SDS011;26931;43.498;-1.506;2023-05-21T08:58:58;12.73;;;7.35;;
34643;SDS011;26931;43.498;-1.506;2023-05-21T09:01:24;15.38;;;7.05;;
34643;SDS011;26931;43.498;-1.506;2023-05-21T09:03:51;13.38;;;7.90;;
34643;SDS011;26931;43.498;-1.506;2023-05-21T09:06:20;10.73;;;7.38;;
34643;SDS011;26931;43.498;-1.506;2023-05-21T09:08:48;13.60;;;7.28;;
34643;SDS011;26931;43.498;-1.506;2023-05-21T09:11:23;14.60;;;6.95;;
34643;SDS011;26931;43.498;-1.506;2023-05-21T09:13:50;15.65;;;7.95;;
34643;SDS011;26931;43.498;-1.506;2023-05-21T09:16:17;14.52;;;7.20;;
34643;SDS011;26931;43.498;-1.506;2023-05-21T09:18:43;14.32;;;7.32;;
34643;SDS011;26931;43.498;-1.506;2023-05-21T09:21:22;19.27;;;8.40;;
34643;SDS011;26931;43.498;-1.506;2023-05-21T09:23:55;10.68;;;7.53;;
34643;SDS011;26931;43.498;-1.506;2023-05-21T09:26:21;14.50;;;8.00;;
34643;SDS011;26931;43.498;-1.506;2023-05-21T09:28:48;13.18;;;7.10;;
34643;SDS011;26931;43.498;-1.506;2023-05-21T09:31:15;15.52;;;8.65;;
34643;SDS011;26931;43.498;-1.506;2023-05-21T09:33:44;12.85;;;7.55;;
34643;SDS011;26931;43.498;-1.506;2023-05-21T09:36:12;12.07;;;7.85;;
34643;SDS011;26931;43.498;-1.506;2023-05-21T09:38:37;11.98;;;7.20;;
34643;SDS011;26931;43.498;-1.506;2023-05-21T09:41:04;19.63;;;8.73;;
34643;SDS011;26931;43.498;-1.506;2023-05-21T09:43:30;15.50;;;7.82;;
34643;SDS011;26931;43.498;-1.506;2023-05-21T09:45:56;14.80;;;7.93;;
34643;SDS011;26931;43.498;-1.506;2023-05-21T09:51:09;17.38;;;7.95;;
34643;SDS011;26931;43.498;-1.506;2023-05-21T09:56:11;13.15;;;6.53;;
34643;SDS011;26931;43.498;-1.506;2023-05-21T09:58:37;14.38;;;7.43;;
34643;SDS011;26931;43.498;-1.506;2023-05-21T10:01:03;17.38;;;7.10;;
34643;SDS011;26931;43.498;-1.506;2023-05-21T10:03:30;17.25;;;8.07;;
34643;SDS011;26931;43.498;-1.506;2023-05-21T10:05:57;15.98;;;7.20;;
34643;SDS011;26931;43.498;-1.506;2023-05-21T10:08:25;16.05;;;7.35;;
34643;SDS011;26931;43.498;-1.506;2023-05-21T10:10:54;17.40;;;8.50;;
34643;SDS011;26931;43.498;-1.506;2023-05-21T10:13:20;14.65;;;7.85;;
34643;SDS011;26931;43.498;-1.506;2023-05-21T10:15:49;16.58;;;8.18;;
34643;SDS011;26931;43.498;-1.506;2023-05-21T10:18:21;20.88;;;7.78;;
34643;SDS011;26931;43.498;-1.506;2023-05-21T10:20:48;13.55;;;8.32;;
34643;SDS011;26931;43.498;-1.506;2023-05-21T10:23:15;17.35;;;8.45;;
34643;SDS011;26931;43.498;-1.506;2023-05-21T10:25:43;15.88;;;7.55;;
34643;SDS011;26931;43.498;-1.506;2023-05-21T10:28:10;19.90;;;8.15;;
34643;SDS011;26931;43.498;-1.506;2023-05-21T10:30:40;19.75;;;8.15;;
34643;SDS011;26931;43.498;-1.506;2023-05-21T10:33:07;15.60;;;6.82;;
34643;SDS011;26931;43.498;-1.506;2023-05-21T10:35:33;16.90;;;7.32;;
34643;SDS011;26931;43.498;-1.506;2023-05-21T10:38:01;13.43;;;6.53;;
34643;SDS011;26931;43.498;-1.506;2023-05-21T10:40:28;13.07;;;7.22;;
34643;SDS011;26931;43.498;-1.506;2023-05-21T10:51:09;13.30;;;6.90;;
34643;SDS011;26931;43.498;-1.506;2023-05-21T10:56:31;10.88;;;5.88;;
34643;SDS011;26931;43.498;-1.506;2023-05-21T11:01:33;18.65;;;6.88;;
34643;SDS011;26931;43.498;-1.506;2023-05-21T11:04:02;14.63;;;6.25;;
34643;SDS011;26931;43.498;-1.506;2023-05-21T11:06:29;10.63;;;5.43;;
34643;SDS011;26931;43.498;-1.506;2023-05-21T11:08:55;12.93;;;6.78;;
34643;SDS011;26931;43.498;-1.506;2023-05-21T11:16:56;13.23;;;6.28;;
34643;SDS011;26931;43.498;-1.506;2023-05-21T11:19:47;12.50;;;5.75;;
34643;SDS011;26931;43.498;-1.506;2023-05-21T11:22:23;14.80;;;6.07;;
34643;SDS011;26931;43.498;-1.506;2023-05-21T11:24:52;16.90;;;6.35;;
34643;SDS011;26931;43.498;-1.506;2023-05-21T11:27:35;14.48;;;6.22;;
34643;SDS011;26931;43.498;-1.506;2023-05-21T11:32:37;12.30;;;6.07;;
34643;SDS011;26931;43.498;-1.506;2023-05-21T11:35:04;10.40;;;5.47;;
34643;SDS011;26931;43.498;-1.506;2023-05-21T11:37:31;10.20;;;5.25;;
34643;SDS011;26931;43.498;-1.506;2023-05-21T11:42:47;13.63;;;5.35;;
34643;SDS011;26931;43.498;-1.506;2023-05-21T11:45:16;16.48;;;6.05;;
34643;SDS011;26931;43.498;-1.506;2023-05-21T11:47:44;9.85;;;5.38;;
34643;SDS011;26931;43.498;-1.506;2023-05-21T11:50:12;11.95;;;6.35;;
34643;SDS011;26931;43.498;-1.506;2023-05-21T11:52:39;13.80;;;6.03;;
34643;SDS011;26931;43.498;-1.506;2023-05-21T11:55:06;13.70;;;5.85;;
34643;SDS011;26931;43.498;-1.506;2023-05-21T11:57:32;9.25;;;5.75;;
34643;SDS011;26931;43.498;-1.506;2023-05-21T11:59:58;18.13;;;6.75;;
34643;SDS011;26931;43.498;-1.506;2023-05-21T12:02:29;15.50;;;6.93;;
34643;SDS011;26931;43.498;-1.506;2023-05-21T12:04:56;10.68;;;6.60;;
34643;SDS011;26931;43.498;-1.506;2023-05-21T12:07:27;17.42;;;6.25;;
34643;SDS011;26931;43.498;-1.506;2023-05-21T12:09:54;10.52;;;6.05;;
34643;SDS011;26931;43.498;-1.506;2023-05-21T12:12:21;15.20;;;6.10;;
34643;SDS011;26931;43.498;-1.506;2023-05-21T12:14:49;12.10;;;6.20;;
34643;SDS011;26931;43.498;-1.506;2023-05-21T12:17:20;11.10;;;5.78;;
34643;SDS011;26931;43.498;-1.506;2023-05-21T12:19:47;11.07;;;6.13;;
34643;SDS011;26931;43.498;-1.506;2023-05-21T12:22:15;16.23;;;6.20;;
34643;SDS011;26931;43.498;-1.506;2023-05-21T12:24:40;15.43;;;6.93;;
34643;SDS011;26931;43.498;-1.506;2023-05-21T12:27:08;14.77;;;7.05;;
34643;SDS011;26931;43.498;-1.506;2023-05-21T12:29:47;14.05;;;5.95;;
34643;SDS011;26931;43.498;-1.506;2023-05-21T12:32:15;19.00;;;6.10;;
34643;SDS011;26931;43.498;-1.506;2023-05-21T12:34:59;14.63;;;6.13;;
34643;SDS011;26931;43.498;-1.506;2023-05-21T12:37:27;11.98;;;5.72;;
34643;SDS011;26931;43.498;-1.506;2023-05-21T12:39:58;11.18;;;6.07;;
34643;SDS011;26931;43.498;-1.506;2023-05-21T12:42:26;10.25;;;5.70;;
34643;SDS011;26931;43.498;-1.506;2023-05-21T12:44:55;13.13;;;6.07;;
34643;SDS011;26931;43.498;-1.506;2023-05-21T12:47:22;14.00;;;6.38;;
34643;SDS011;26931;43.498;-1.506;2023-05-21T12:49:49;9.63;;;5.53;;
34643;SDS011;26931;43.498;-1.506;2023-05-21T12:52:19;11.25;;;5.25;;
34643;SDS011;26931;43.498;-1.506;2023-05-21T12:54:51;11.18;;;4.70;;
34643;SDS011;26931;43.498;-1.506;2023-05-21T12:57:19;11.20;;;5.28;;
34643;SDS011;26931;43.498;-1.506;2023-05-21T13:04:48;9.98;;;5.38;;
34643;SDS011;26931;43.498;-1.506;2023-05-21T13:07:19;8.05;;;4.80;;
34643;SDS011;26931;43.498;-1.506;2023-05-21T13:09:45;20.63;;;6.70;;
34643;SDS011;26931;43.498;-1.506;2023-05-21T13:12:11;13.30;;;5.10;;
34643;SDS011;26931;43.498;-1.506;2023-05-21T13:14:37;13.25;;;6.05;;
34643;SDS011;26931;43.498;-1.506;2023-05-21T13:17:03;12.05;;;6.30;;
34643;SDS011;26931;43.498;-1.506;2023-05-21T13:19:29;11.73;;;5.35;;
34643;SDS011;26931;43.498;-1.506;2023-05-21T13:21:55;13.93;;;5.78;;
34643;SDS011;26931;43.498;-1.506;2023-05-21T13:24:21;9.63;;;5.57;;
34643;SDS011;26931;43.498;-1.506;2023-05-21T13:26:46;13.02;;;5.78;;
34643;SDS011;26931;43.498;-1.506;2023-05-21T13:29:12;11.60;;;5.63;;
34643;SDS011;26931;43.498;-1.506;2023-05-21T13:31:42;12.18;;;5.63;;
34643;SDS011;26931;43.498;-1.506;2023-05-21T13:34:09;12.05;;;6.30;;
34643;SDS011;26931;43.498;-1.506;2023-05-21T13:36:36;11.20;;;5.90;;
34643;SDS011;26931;43.498;-1.506;2023-05-21T13:39:02;12.48;;;5.40;;
34643;SDS011;26931;43.498;-1.506;2023-05-21T13:41:28;11.05;;;5.65;;
34643;SDS011;26931;43.498;-1.506;2023-05-21T13:43:53;10.65;;;5.45;;
34643;SDS011;26931;43.498;-1.506;2023-05-21T13:46:19;15.48;;;5.80;;
34643;SDS011;26931;43.498;-1.506;2023-05-21T13:48:45;10.75;;;5.63;;
34643;SDS011;26931;43.498;-1.506;2023-05-21T13:51:11;14.77;;;6.00;;
34643;SDS011;26931;43.498;-1.506;2023-05-21T13:53:36;11.70;;;5.65;;
34643;SDS011;26931;43.498;-1.506;2023-05-21T13:56:02;11.07;;;5.68;;
34643;SDS011;26931;43.498;-1.506;2023-05-21T13:58:28;13.02;;;5.32;;
34643;SDS011;26931;43.498;-1.506;2023-05-21T14:00:58;10.95;;;6.00;;
34643;SDS011;26931;43.498;-1.506;2023-05-21T14:03:27;12.85;;;6.22;;
34643;SDS011;26931;43.498;-1.506;2023-05-21T14:05:54;9.20;;;5.20;;
34643;SDS011;26931;43.498;-1.506;2023-05-21T14:08:21;8.48;;;5.15;;
34643;SDS011;26931;43.498;-1.506;2023-05-21T14:10:47;11.35;;;5.57;;
34643;SDS011;26931;43.498;-1.506;2023-05-21T14:13:13;15.85;;;5.50;;
34643;SDS011;26931;43.498;-1.506;2023-05-21T14:15:41;15.35;;;5.68;;
34643;SDS011;26931;43.498;-1.506;2023-05-21T14:18:07;10.93;;;5.10;;
34643;SDS011;26931;43.498;-1.506;2023-05-21T14:20:36;11.00;;;5.60;;
34643;SDS011;26931;43.498;-1.506;2023-05-21T14:23:02;9.32;;;5.13;;
34643;SDS011;26931;43.498;-1.506;2023-05-21T14:25:31;8.73;;;5.43;;
34643;SDS011;26931;43.498;-1.506;2023-05-21T14:27:57;11.70;;;6.30;;
34643;SDS011;26931;43.498;-1.506;2023-05-21T14:30:22;11.65;;;5.72;;
34643;SDS011;26931;43.498;-1.506;2023-05-21T14:32:48;11.98;;;5.75;;
34643;SDS011;26931;43.498;-1.506;2023-05-21T14:35:14;8.75;;;5.05;;
34643;SDS011;26931;43.498;-1.506;2023-05-21T14:37:40;10.73;;;6.07;;
34643;SDS011;26931;43.498;-1.506;2023-05-21T14:40:06;9.23;;;5.28;;
34643;SDS011;26931;43.498;-1.506;2023-05-21T14:42:32;14.52;;;6.57;;
34643;SDS011;26931;43.498;-1.506;2023-05-21T14:44:59;12.52;;;5.82;;
34643;SDS011;26931;43.498;-1.506;2023-05-21T14:47:25;16.02;;;5.53;;
34643;SDS011;26931;43.498;-1.506;2023-05-21T14:49:51;11.02;;;5.22;;
34643;SDS011;26931;43.498;-1.506;2023-05-21T14:52:16;9.38;;;5.40;;
34643;SDS011;26931;43.498;-1.506;2023-05-21T14:54:42;13.45;;;5.78;;
34643;SDS011;26931;43.498;-1.506;2023-05-21T14:57:08;6.47;;;5.18;;
34643;SDS011;26931;43.498;-1.506;2023-05-21T14:59:33;9.93;;;5.40;;